createdAt,value
2023-05-15T00:03:11.725Z,87.90
2023-05-15T00:07:02.808Z,87.50
2023-05-15T00:10:33.317Z,88.86
2023-05-15T00:13:41.467Z,89.29
2023-05-15T00:17:10.093Z,89.38
2023-05-15T00:20:39.953Z,87.89
2023-05-15T00:24:03.410Z,88.45
2023-05-15T00:27:31.675Z,88.14
2023-05-15T00:30:56.967Z,87.87
2023-05-15T00:34:05.919Z,88.51
2023-05-15T00:37:15.402Z,89.06
2023-05-15T00:40:25.080Z,89.59
2023-05-15T00:43:31.574Z,90.04
2023-05-15T00:46:37.422Z,90.97
2023-05-15T00:49:56.701Z,91.48
2023-05-15T00:53:15.857Z,91.16
2023-05-15T00:56:41.960Z,92.01
2023-05-15T01:00:03.453Z,91.67
2023-05-15T01:03:12.037Z,92.55
2023-05-15T01:06:19.528Z,92.22
2023-05-15T01:09:37.393Z,93.40
2023-05-15T01:12:57.598Z,93.93
2023-05-15T01:16:01.709Z,95.15
2023-05-15T01:19:06.308Z,96.12
2023-05-15T01:22:49.499Z,97.37
2023-05-15T01:26:35.966Z,97.99
2023-05-15T01:30:10.054Z,98.65
2023-05-15T01:33:34.910Z,98.35
2023-05-15T01:36:50.782Z,98.14
2023-05-15T01:40:06.339Z,98.15
2023-05-15T01:43:17.091Z,98.30
2023-05-15T01:46:28.493Z,99.08
2023-05-15T01:49:44.125Z,99.51
2023-05-15T01:53:02.750Z,99.30
2023-05-15T01:56:15.639Z,100.00
2023-05-15T01:59:22.710Z,100.00
2023-05-15T02:02:43.495Z,100.00
2023-05-15T02:05:49.542Z,99.43
2023-05-15T02:09:11.768Z,98.94
2023-05-15T02:12:21.647Z,99.20
2023-05-15T02:15:25.811Z,98.74
2023-05-15T02:18:33.747Z,98.32
2023-05-15T02:21:37.856Z,98.65
2023-05-15T02:24:42.068Z,98.57
2023-05-15T02:28:06.479Z,98.94
2023-05-15T02:31:29.832Z,99.42
2023-05-15T02:35:05.385Z,99.55
2023-05-15T02:38:17.310Z,100.00
2023-05-15T02:41:23.654Z,100.00
2023-05-15T02:44:28.849Z,100.00
2023-05-15T02:47:37.368Z,100.00
2023-05-15T02:50:41.565Z,100.00
2023-05-15T02:53:45.121Z,100.00
2023-05-15T02:56:49.310Z,100.00
2023-05-15T02:59:54.126Z,100.00
2023-05-15T03:02:57.651Z,100.00
2023-05-15T03:06:03.670Z,100.00
2023-05-15T03:09:09.912Z,100.00
2023-05-15T03:12:13.584Z,100.00
2023-05-15T03:15:20.979Z,100.00
2023-05-15T03:18:24.859Z,100.00
2023-05-15T03:21:28.134Z,100.00
2023-05-15T03:24:31.426Z,100.00
2023-05-15T03:27:34.916Z,100.00
2023-05-15T03:30:38.733Z,100.00
2023-05-15T03:33:43.083Z,100.00
2023-05-15T03:36:46.984Z,100.00
2023-05-15T03:39:51.026Z,100.00
2023-05-15T03:42:56.925Z,100.00
2023-05-15T03:46:01.403Z,100.00
2023-05-15T03:49:08.885Z,100.00
2023-05-15T03:52:19.226Z,100.00
2023-05-15T03:55:23.206Z,100.00
2023-05-15T03:58:28.081Z,100.00
2023-05-15T04:01:32.102Z,100.00
2023-05-15T04:04:36.048Z,100.00
2023-05-15T04:07:43.035Z,100.00
2023-05-15T04:10:49.522Z,100.00
2023-05-15T04:13:52.658Z,100.00
2023-05-15T04:16:57.559Z,100.00
2023-05-15T04:20:02.489Z,100.00
2023-05-15T04:23:07.000Z,100.00
2023-05-15T04:26:10.470Z,100.00
2023-05-15T04:29:14.379Z,100.00
2023-05-15T04:32:17.986Z,100.00
2023-05-15T04:35:21.744Z,100.00
2023-05-15T04:38:29.216Z,100.00
2023-05-15T04:41:33.924Z,100.00
2023-05-15T04:44:37.713Z,100.00
2023-05-15T04:47:41.361Z,100.00
2023-05-15T04:50:44.686Z,100.00
2023-05-15T04:53:48.487Z,100.00
2023-05-15T04:56:52.077Z,100.00
2023-05-15T04:59:55.797Z,100.00
2023-05-15T05:02:59.169Z,100.00
2023-05-15T05:06:03.460Z,100.00
2023-05-15T05:09:10.512Z,100.00
2023-05-15T05:12:15.211Z,100.00
2023-05-15T05:15:20.431Z,100.00
2023-05-15T05:18:28.273Z,100.00
2023-05-15T05:21:33.653Z,100.00
2023-05-15T05:24:41.328Z,100.00
2023-05-15T05:27:48.502Z,100.00
2023-05-15T05:30:52.907Z,100.00
2023-05-15T05:33:58.523Z,100.00
2023-05-15T05:37:07.264Z,100.00
2023-05-15T05:40:14.665Z,100.00
2023-05-15T05:43:19.924Z,100.00
2023-05-15T05:46:36.486Z,100.00
2023-05-15T05:49:44.429Z,100.00
2023-05-15T05:52:57.709Z,100.00
2023-05-15T05:56:10.315Z,100.00
2023-05-15T05:59:46.155Z,100.00
2023-05-15T06:03:09.770Z,100.00
2023-05-15T06:10:36.853Z,100.00
2023-05-15T06:18:01.997Z,100.00
2023-05-15T06:21:27.232Z,100.00
2023-05-15T06:24:40.120Z,100.00
2023-05-15T06:27:59.742Z,100.00
2023-05-15T06:31:16.613Z,100.00
2023-05-15T06:34:22.301Z,100.00
2023-05-15T06:37:26.601Z,100.00
2023-05-15T06:40:43.562Z,100.00
2023-05-15T06:43:51.175Z,100.00
2023-05-15T06:47:59.946Z,100.00
2023-05-15T06:51:39.724Z,100.00
2023-05-15T06:56:31.690Z,100.00
2023-05-15T06:59:45.314Z,100.00
2023-05-15T07:02:57.299Z,100.00
2023-05-15T07:06:11.130Z,100.00
2023-05-15T07:09:19.285Z,100.00
2023-05-15T07:12:35.980Z,100.00
2023-05-15T07:15:52.858Z,100.00
2023-05-15T07:19:50.304Z,100.00
2023-05-15T07:23:46.599Z,100.00
2023-05-15T07:27:11.324Z,100.00
2023-05-15T07:30:28.286Z,100.00
2023-05-15T07:34:18.264Z,100.00
2023-05-15T07:38:39.220Z,100.00
2023-05-15T07:50:47.673Z,100.00
2023-05-15T07:54:41.867Z,100.00
2023-05-15T07:59:16.712Z,100.00
2023-05-15T08:03:06.833Z,100.00
2023-05-15T08:07:38.640Z,100.00
2023-05-15T08:12:35.358Z,99.88
2023-05-15T08:25:27.609Z,98.62
2023-05-15T08:28:31.191Z,98.45
2023-05-15T08:31:36.882Z,98.46
2023-05-15T08:34:52.475Z,97.84
2023-05-15T08:38:04.932Z,97.43
2023-05-15T08:41:32.898Z,98.21
2023-05-15T08:44:43.367Z,97.40
2023-05-15T08:47:55.969Z,99.40
2023-05-15T08:51:03.109Z,97.83
2023-05-15T08:54:13.707Z,97.99
2023-05-15T08:57:28.414Z,98.35
2023-05-15T09:00:31.774Z,98.56
2023-05-15T09:03:41.256Z,97.56
2023-05-15T09:07:01.035Z,97.27
2023-05-15T09:10:20.079Z,96.71
2023-05-15T09:13:25.677Z,95.61
2023-05-15T09:16:31.673Z,95.46
2023-05-15T09:19:35.204Z,94.37
2023-05-15T09:22:41.507Z,94.78
2023-05-15T09:25:47.510Z,93.61
2023-05-15T09:28:53.327Z,94.61
2023-05-15T09:32:00.332Z,93.83
2023-05-15T09:35:04.041Z,93.49
2023-05-15T09:38:12.821Z,94.73
2023-05-15T09:41:24.720Z,93.97
2023-05-15T09:44:30.314Z,94.53
2023-05-15T09:47:36.686Z,93.62
2023-05-15T09:50:41.926Z,93.22
2023-05-15T09:53:55.823Z,93.20
2023-05-15T09:57:11.832Z,94.42
2023-05-15T10:00:15.456Z,94.63
2023-05-15T10:03:22.215Z,94.75
2023-05-15T10:06:25.390Z,95.59
2023-05-15T10:13:07.499Z,95.70
2023-05-15T10:16:13.469Z,97.40
2023-05-15T10:19:20.515Z,96.81
2023-05-15T10:22:29.524Z,96.35
2023-05-15T10:25:44.424Z,96.78
2023-05-15T10:28:50.372Z,96.76
2023-05-15T10:31:56.742Z,96.91
2023-05-15T10:35:01.573Z,95.88
2023-05-15T10:38:06.027Z,97.16
2023-05-15T10:41:17.765Z,99.00
2023-05-15T10:50:23.464Z,99.18
2023-05-15T10:53:26.520Z,100.00
2023-05-15T10:56:31.391Z,100.00
2023-05-15T10:59:36.401Z,100.00
2023-05-15T11:02:39.963Z,100.00
2023-05-15T11:06:13.263Z,100.00
2023-05-15T11:09:22.928Z,100.00
2023-05-15T11:12:26.465Z,100.00
2023-05-15T11:15:43.298Z,100.00
2023-05-15T11:18:56.626Z,100.00
2023-05-15T11:22:02.034Z,100.00
2023-05-15T11:25:14.480Z,100.00
2023-05-15T11:28:24.164Z,100.00
2023-05-15T11:31:31.663Z,100.00
2023-05-15T11:34:46.653Z,100.00
2023-05-15T11:37:55.687Z,100.00
2023-05-15T11:41:05.074Z,100.00
2023-05-15T11:44:11.604Z,100.00
2023-05-15T11:52:43.953Z,100.00
2023-05-15T11:56:12.966Z,100.00
2023-05-15T11:59:17.490Z,100.00
2023-05-15T12:02:21.199Z,100.00
2023-05-15T12:05:24.911Z,100.00
2023-05-15T12:08:42.538Z,100.00
2023-05-15T12:11:52.905Z,99.02
2023-05-15T12:15:00.376Z,99.04
2023-05-15T12:18:10.365Z,95.75
2023-05-15T12:21:13.384Z,98.61
2023-05-15T12:24:48.712Z,97.82
2023-05-15T12:27:51.980Z,97.06
2023-05-15T12:31:30.067Z,97.33
2023-05-15T12:34:34.056Z,99.22
2023-05-15T12:37:37.713Z,98.20
2023-05-15T12:40:40.964Z,97.18
2023-05-15T12:43:44.099Z,97.22
2023-05-15T12:46:48.187Z,96.71
2023-05-15T12:49:58.320Z,98.57
2023-05-15T12:53:04.185Z,96.12
2023-05-15T12:56:07.557Z,96.75
2023-05-15T12:59:18.201Z,98.02
2023-05-15T13:02:23.201Z,95.72
2023-05-15T13:05:35.183Z,94.00
2023-05-15T13:08:44.234Z,95.76
2023-05-15T13:11:48.058Z,93.52
2023-05-15T13:14:54.237Z,94.60
2023-05-15T13:18:09.052Z,93.88
2023-05-15T13:21:29.829Z,90.61
2023-05-15T13:24:56.332Z,93.34
2023-05-15T13:28:08.826Z,95.09
2023-05-15T13:31:13.716Z,90.88
2023-05-15T13:34:21.636Z,91.99
2023-05-15T13:37:24.934Z,95.75
2023-05-15T13:40:35.891Z,92.35
2023-05-15T13:43:40.711Z,92.55
2023-05-15T13:46:44.198Z,94.13
2023-05-15T13:49:49.385Z,91.79
2023-05-15T13:52:54.727Z,91.91
2023-05-15T13:55:58.068Z,95.08
2023-05-15T13:59:03.661Z,93.99
2023-05-15T14:02:09.308Z,93.59
2023-05-15T14:05:31.265Z,93.04
2023-05-15T14:08:34.068Z,91.23
2023-05-15T14:11:37.292Z,92.09
2023-05-15T14:14:40.528Z,92.59
2023-05-15T14:17:43.607Z,90.43
2023-05-15T14:20:46.741Z,90.56
2023-05-15T14:23:49.848Z,92.16
2023-05-15T14:26:53.640Z,92.88
2023-05-15T14:29:59.751Z,93.19
2023-05-15T14:33:06.962Z,93.34
2023-05-15T14:36:12.592Z,92.38
2023-05-15T14:39:19.227Z,89.70
2023-05-15T14:42:22.288Z,91.23
2023-05-15T14:45:25.713Z,90.49
2023-05-15T14:48:30.176Z,90.88
2023-05-15T14:51:33.820Z,92.18
2023-05-15T14:54:37.955Z,90.04
2023-05-15T14:57:41.278Z,91.26
2023-05-15T15:00:44.510Z,92.96
2023-05-15T15:03:48.308Z,93.58
2023-05-15T15:06:51.504Z,93.40
2023-05-15T15:09:54.780Z,93.94
2023-05-15T15:13:01.403Z,93.23
2023-05-15T15:16:05.661Z,93.59
2023-05-15T15:19:09.159Z,94.63
2023-05-15T15:22:15.970Z,94.24
2023-05-15T15:25:23.759Z,93.34
2023-05-15T15:28:29.601Z,92.70
2023-05-15T15:31:41.499Z,94.36
2023-05-15T15:34:44.531Z,92.65
2023-05-15T15:37:47.516Z,92.82
2023-05-15T15:40:50.982Z,94.81
2023-05-15T15:43:54.190Z,94.33
2023-05-15T15:46:57.661Z,93.93
2023-05-15T15:50:00.926Z,91.72
2023-05-15T15:53:04.130Z,93.30
2023-05-15T15:56:07.819Z,92.91
2023-05-15T15:59:10.906Z,93.54
2023-05-15T16:02:14.166Z,93.53
2023-05-15T16:05:17.239Z,91.97
2023-05-15T16:08:20.732Z,94.22
2023-05-15T16:11:24.425Z,93.83
2023-05-15T16:14:28.286Z,93.48
2023-05-15T16:17:31.403Z,95.97
2023-05-15T16:20:38.252Z,95.76
2023-05-15T16:23:43.979Z,96.13
2023-05-15T16:26:47.066Z,95.82
2023-05-15T16:29:50.448Z,95.33
2023-05-15T16:32:56.195Z,95.46
2023-05-15T16:36:00.789Z,95.28
2023-05-15T16:39:06.991Z,95.56
2023-05-15T16:42:12.371Z,96.26
2023-05-15T16:45:15.335Z,97.05
2023-05-15T16:48:20.062Z,98.68
2023-05-15T16:51:26.813Z,99.69
2023-05-15T16:54:30.397Z,100.00
2023-05-15T16:57:33.884Z,100.00
2023-05-15T17:00:37.356Z,100.00
2023-05-15T17:03:41.693Z,100.00
2023-05-15T17:06:46.068Z,100.00
2023-05-15T17:09:49.146Z,100.00
2023-05-15T17:12:52.212Z,100.00
2023-05-15T17:15:55.375Z,100.00
2023-05-15T17:19:00.231Z,100.00
2023-05-15T17:22:03.483Z,100.00
2023-05-15T17:25:07.495Z,100.00
2023-05-15T17:28:10.564Z,100.00
2023-05-15T17:31:13.818Z,100.00
2023-05-15T17:34:16.702Z,100.00
2023-05-15T17:37:19.981Z,100.00
2023-05-15T17:40:22.951Z,100.00
2023-05-15T17:43:26.038Z,100.00
2023-05-15T17:46:29.405Z,100.00
2023-05-15T17:49:34.496Z,100.00
2023-05-15T17:52:38.326Z,100.00
2023-05-15T17:55:41.510Z,100.00
2023-05-15T17:58:44.770Z,100.00
2023-05-15T18:01:47.879Z,100.00
2023-05-15T18:04:51.428Z,100.00
2023-05-15T18:07:56.458Z,100.00
2023-05-15T18:11:04.197Z,100.00
2023-05-15T18:14:14.672Z,100.00
2023-05-15T18:17:17.843Z,100.00
2023-05-15T18:20:21.138Z,100.00
2023-05-15T18:23:24.101Z,100.00
2023-05-15T18:26:29.328Z,100.00
2023-05-15T18:29:32.198Z,100.00
2023-05-15T18:32:35.329Z,100.00
2023-05-15T18:35:38.881Z,100.00
2023-05-15T18:38:41.953Z,100.00
2023-05-15T18:41:44.906Z,100.00
2023-05-15T18:44:47.737Z,100.00
2023-05-15T18:47:50.804Z,100.00
2023-05-15T18:50:54.240Z,100.00
2023-05-15T18:53:57.203Z,100.00
2023-05-15T18:57:00.309Z,100.00
2023-05-15T19:00:04.592Z,100.00
2023-05-15T19:03:09.009Z,100.00
2023-05-15T19:06:13.595Z,100.00
2023-05-15T19:09:23.358Z,100.00
2023-05-15T19:12:26.840Z,100.00
2023-05-15T19:15:29.790Z,100.00
2023-05-15T19:18:32.981Z,100.00
2023-05-15T19:21:39.237Z,100.00
2023-05-15T19:24:41.981Z,100.00
2023-05-15T19:27:45.354Z,100.00
2023-05-15T19:30:48.530Z,100.00
2023-05-15T19:33:51.608Z,100.00
2023-05-15T19:36:57.556Z,100.00
2023-05-15T19:40:00.741Z,100.00
2023-05-15T19:43:04.527Z,100.00
2023-05-15T19:46:07.829Z,100.00
2023-05-15T19:49:11.385Z,100.00
2023-05-15T19:52:14.383Z,100.00
2023-05-15T19:55:17.501Z,100.00
2023-05-15T19:58:22.338Z,100.00
2023-05-15T20:01:25.437Z,100.00
2023-05-15T20:04:28.470Z,100.00
2023-05-15T20:07:31.336Z,100.00
2023-05-15T20:10:34.119Z,100.00
2023-05-15T20:13:37.663Z,100.00
2023-05-15T20:16:40.862Z,100.00
2023-05-15T20:19:43.926Z,100.00
2023-05-15T20:22:46.806Z,100.00
2023-05-15T20:25:51.077Z,100.00
2023-05-15T20:28:54.030Z,100.00
2023-05-15T20:31:57.292Z,100.00
2023-05-15T20:35:00.904Z,100.00
2023-05-15T20:38:04.590Z,100.00
2023-05-15T20:41:07.390Z,100.00
2023-05-15T20:44:10.179Z,100.00
2023-05-15T20:47:13.300Z,100.00
2023-05-15T20:50:16.611Z,100.00
2023-05-15T20:53:19.549Z,100.00
2023-05-15T20:56:22.665Z,100.00
2023-05-15T20:59:27.855Z,100.00
2023-05-15T21:02:31.076Z,100.00
2023-05-15T21:05:34.209Z,100.00
2023-05-15T21:08:37.382Z,100.00
2023-05-15T21:11:40.385Z,100.00
2023-05-15T21:14:43.475Z,100.00
2023-05-15T21:17:46.255Z,100.00
2023-05-15T21:20:49.173Z,100.00
2023-05-15T21:23:51.898Z,100.00
2023-05-15T21:26:54.808Z,100.00
2023-05-15T21:29:57.782Z,100.00
2023-05-15T21:33:00.765Z,100.00
2023-05-15T21:36:05.031Z,100.00
2023-05-15T21:39:08.921Z,100.00
2023-05-15T21:42:11.726Z,100.00
2023-05-15T21:45:14.772Z,100.00
2023-05-15T21:48:17.741Z,100.00
2023-05-15T21:51:20.648Z,100.00
2023-05-15T21:54:23.690Z,100.00
2023-05-15T21:57:26.580Z,100.00
2023-05-15T22:00:29.968Z,100.00
2023-05-15T22:03:32.840Z,100.00
2023-05-15T22:06:36.044Z,100.00
2023-05-15T22:09:39.047Z,100.00
2023-05-15T22:12:42.582Z,100.00
2023-05-15T22:15:45.418Z,100.00
2023-05-15T22:18:48.869Z,100.00
2023-05-15T22:21:51.703Z,100.00
2023-05-15T22:24:54.457Z,100.00
2023-05-15T22:27:57.225Z,100.00
2023-05-15T22:31:00.133Z,100.00
2023-05-15T22:34:03.120Z,100.00
2023-05-15T22:37:06.155Z,100.00
2023-05-15T22:40:10.664Z,100.00
2023-05-15T22:43:13.517Z,100.00
2023-05-15T22:46:16.391Z,100.00
2023-05-15T22:49:25.668Z,100.00
2023-05-15T22:52:28.552Z,100.00
2023-05-15T22:55:31.254Z,100.00
2023-05-15T22:58:34.234Z,100.00
2023-05-15T23:01:39.733Z,100.00
2023-05-15T23:04:43.577Z,100.00
2023-05-15T23:07:46.725Z,100.00
2023-05-15T23:10:49.720Z,100.00
2023-05-15T23:13:52.890Z,100.00
2023-05-15T23:16:55.933Z,100.00
2023-05-15T23:19:59.009Z,100.00
2023-05-15T23:23:02.024Z,100.00
2023-05-15T23:26:05.200Z,100.00
2023-05-15T23:29:08.742Z,100.00
2023-05-15T23:32:11.966Z,100.00
2023-05-15T23:35:14.806Z,100.00
2023-05-15T23:38:18.064Z,100.00
2023-05-15T23:41:22.958Z,100.00
2023-05-15T23:44:26.622Z,100.00
2023-05-15T23:47:29.786Z,100.00
2023-05-15T23:50:32.781Z,100.00
2023-05-15T23:53:36.205Z,100.00
2023-05-15T23:56:39.334Z,100.00
2023-05-15T23:59:41.989Z,100.00
